sensor_id;sensor_type;location;lat;lon;timestamp;P1;durP1;ratioP1;P2;durP2;ratioP2
83552;SDS011;73510;50.866;5.420;2024-02-21T00:02:08;18.13;;;8.18;;
83552;SDS011;73510;50.866;5.420;2024-02-21T00:04:34;17.25;;;8.15;;
83552;SDS011;73510;50.866;5.420;2024-02-21T00:07:01;21.52;;;9.40;;
83552;SDS011;73510;50.866;5.420;2024-02-21T00:09:27;20.75;;;8.73;;
83552;SDS011;73510;50.866;5.420;2024-02-21T00:11:53;14.98;;;7.45;;
83552;SDS011;73510;50.866;5.420;2024-02-21T00:14:18;17.25;;;7.85;;
83552;SDS011;73510;50.866;5.420;2024-02-21T00:16:44;18.58;;;8.77;;
83552;SDS011;73510;50.866;5.420;2024-02-21T00:19:10;21.08;;;7.97;;
83552;SDS011;73510;50.866;5.420;2024-02-21T00:21:36;15.10;;;7.93;;
83552;SDS011;73510;50.866;5.420;2024-02-21T00:24:02;13.95;;;7.68;;
83552;SDS011;73510;50.866;5.420;2024-02-21T00:26:28;16.63;;;8.00;;
83552;SDS011;73510;50.866;5.420;2024-02-21T00:28:53;19.42;;;8.32;;
83552;SDS011;73510;50.866;5.420;2024-02-21T00:31:19;16.60;;;7.72;;
83552;SDS011;73510;50.866;5.420;2024-02-21T00:33:45;18.70;;;7.90;;
83552;SDS011;73510;50.866;5.420;2024-02-21T00:36:10;17.95;;;8.48;;
83552;SDS011;73510;50.866;5.420;2024-02-21T00:38:36;13.35;;;7.38;;
83552;SDS011;73510;50.866;5.420;2024-02-21T00:41:02;26.25;;;8.63;;
83552;SDS011;73510;50.866;5.420;2024-02-21T00:43:28;15.32;;;7.50;;
83552;SDS011;73510;50.866;5.420;2024-02-21T00:45:53;15.65;;;7.57;;
83552;SDS011;73510;50.866;5.420;2024-02-21T00:48:19;16.95;;;7.50;;
83552;SDS011;73510;50.866;5.420;2024-02-21T00:50:45;15.35;;;8.20;;
83552;SDS011;73510;50.866;5.420;2024-02-21T00:53:10;18.13;;;7.57;;
83552;SDS011;73510;50.866;5.420;2024-02-21T00:55:36;15.60;;;7.20;;
83552;SDS011;73510;50.866;5.420;2024-02-21T00:58:02;19.50;;;7.25;;
83552;SDS011;73510;50.866;5.420;2024-02-21T01:00:27;17.73;;;7.50;;
83552;SDS011;73510;50.866;5.420;2024-02-21T01:02:54;18.60;;;7.43;;
83552;SDS011;73510;50.866;5.420;2024-02-21T01:05:19;15.77;;;6.38;;
83552;SDS011;73510;50.866;5.420;2024-02-21T01:07:45;17.63;;;7.30;;
83552;SDS011;73510;50.866;5.420;2024-02-21T01:10:11;19.42;;;7.43;;
83552;SDS011;73510;50.866;5.420;2024-02-21T01:12:36;15.55;;;7.30;;
83552;SDS011;73510;50.866;5.420;2024-02-21T01:15:02;18.92;;;7.55;;
83552;SDS011;73510;50.866;5.420;2024-02-21T01:17:28;20.50;;;7.40;;
83552;SDS011;73510;50.866;5.420;2024-02-21T01:19:54;14.93;;;6.75;;
83552;SDS011;73510;50.866;5.420;2024-02-21T01:22:20;16.05;;;7.25;;
83552;SDS011;73510;50.866;5.420;2024-02-21T01:24:46;16.95;;;6.72;;
83552;SDS011;73510;50.866;5.420;2024-02-21T01:27:11;16.63;;;6.88;;
83552;SDS011;73510;50.866;5.420;2024-02-21T01:29:37;17.50;;;7.53;;
83552;SDS011;73510;50.866;5.420;2024-02-21T01:32:03;18.77;;;7.47;;
83552;SDS011;73510;50.866;5.420;2024-02-21T01:34:28;14.75;;;6.25;;
83552;SDS011;73510;50.866;5.420;2024-02-21T01:36:54;15.10;;;6.90;;
83552;SDS011;73510;50.866;5.420;2024-02-21T01:39:20;15.75;;;6.53;;
83552;SDS011;73510;50.866;5.420;2024-02-21T01:41:45;13.73;;;6.65;;
83552;SDS011;73510;50.866;5.420;2024-02-21T01:44:12;20.20;;;7.15;;
83552;SDS011;73510;50.866;5.420;2024-02-21T01:46:37;14.30;;;7.35;;
83552;SDS011;73510;50.866;5.420;2024-02-21T01:49:03;14.68;;;6.75;;
83552;SDS011;73510;50.866;5.420;2024-02-21T01:51:29;17.38;;;6.10;;
83552;SDS011;73510;50.866;5.420;2024-02-21T01:53:56;14.30;;;6.70;;
83552;SDS011;73510;50.866;5.420;2024-02-21T01:56:22;12.25;;;6.32;;
83552;SDS011;73510;50.866;5.420;2024-02-21T01:58:49;13.18;;;6.57;;
83552;SDS011;73510;50.866;5.420;2024-02-21T02:01:16;14.20;;;5.55;;
83552;SDS011;73510;50.866;5.420;2024-02-21T02:03:42;14.73;;;6.25;;
83552;SDS011;73510;50.866;5.420;2024-02-21T02:06:10;16.27;;;6.72;;
83552;SDS011;73510;50.866;5.420;2024-02-21T02:08:36;11.40;;;5.93;;
83552;SDS011;73510;50.866;5.420;2024-02-21T02:11:02;18.17;;;6.65;;
83552;SDS011;73510;50.866;5.420;2024-02-21T02:13:28;15.00;;;6.18;;
83552;SDS011;73510;50.866;5.420;2024-02-21T02:15:54;15.65;;;7.15;;
83552;SDS011;73510;50.866;5.420;2024-02-21T02:18:20;19.63;;;6.75;;
83552;SDS011;73510;50.866;5.420;2024-02-21T02:20:46;16.27;;;5.82;;
83552;SDS011;73510;50.866;5.420;2024-02-21T02:25:51;15.43;;;6.93;;
83552;SDS011;73510;50.866;5.420;2024-02-21T02:28:20;19.35;;;5.95;;
83552;SDS011;73510;50.866;5.420;2024-02-21T02:30:46;15.32;;;6.38;;
83552;SDS011;73510;50.866;5.420;2024-02-21T02:33:12;16.67;;;6.53;;
83552;SDS011;73510;50.866;5.420;2024-02-21T02:35:38;16.83;;;6.85;;
83552;SDS011;73510;50.866;5.420;2024-02-21T02:38:04;13.70;;;6.65;;
83552;SDS011;73510;50.866;5.420;2024-02-21T02:40:30;10.25;;;5.88;;
83552;SDS011;73510;50.866;5.420;2024-02-21T02:42:56;13.57;;;7.28;;
83552;SDS011;73510;50.866;5.420;2024-02-21T02:45:22;15.23;;;6.85;;
83552;SDS011;73510;50.866;5.420;2024-02-21T02:47:55;14.65;;;5.95;;
83552;SDS011;73510;50.866;5.420;2024-02-21T02:50:22;16.48;;;6.40;;
83552;SDS011;73510;50.866;5.420;2024-02-21T02:52:51;13.68;;;5.35;;
83552;SDS011;73510;50.866;5.420;2024-02-21T02:55:17;14.70;;;6.30;;
83552;SDS011;73510;50.866;5.420;2024-02-21T02:57:43;17.45;;;5.90;;
83552;SDS011;73510;50.866;5.420;2024-02-21T03:00:10;13.27;;;6.28;;
83552;SDS011;73510;50.866;5.420;2024-02-21T03:02:37;17.95;;;6.30;;
83552;SDS011;73510;50.866;5.420;2024-02-21T03:05:12;12.38;;;6.03;;
83552;SDS011;73510;50.866;5.420;2024-02-21T03:07:42;13.70;;;5.97;;
83552;SDS011;73510;50.866;5.420;2024-02-21T03:10:08;18.38;;;6.00;;
83552;SDS011;73510;50.866;5.420;2024-02-21T03:12:35;12.25;;;6.63;;
83552;SDS011;73510;50.866;5.420;2024-02-21T03:15:01;14.52;;;6.25;;
83552;SDS011;73510;50.866;5.420;2024-02-21T03:17:27;13.70;;;6.78;;
83552;SDS011;73510;50.866;5.420;2024-02-21T03:19:53;12.82;;;6.30;;
83552;SDS011;73510;50.866;5.420;2024-02-21T03:22:21;14.00;;;5.47;;
83552;SDS011;73510;50.866;5.420;2024-02-21T03:24:47;12.57;;;5.90;;
83552;SDS011;73510;50.866;5.420;2024-02-21T03:27:13;13.23;;;5.47;;
83552;SDS011;73510;50.866;5.420;2024-02-21T03:29:38;15.63;;;6.35;;
83552;SDS011;73510;50.866;5.420;2024-02-21T03:32:04;15.55;;;6.55;;
83552;SDS011;73510;50.866;5.420;2024-02-21T03:34:30;14.40;;;5.40;;
83552;SDS011;73510;50.866;5.420;2024-02-21T03:36:56;11.13;;;5.18;;
83552;SDS011;73510;50.866;5.420;2024-02-21T03:39:21;14.77;;;5.93;;
83552;SDS011;73510;50.866;5.420;2024-02-21T03:41:47;14.40;;;5.57;;
83552;SDS011;73510;50.866;5.420;2024-02-21T03:44:14;12.18;;;5.65;;
83552;SDS011;73510;50.866;5.420;2024-02-21T03:46:39;13.23;;;5.47;;
83552;SDS011;73510;50.866;5.420;2024-02-21T03:49:05;12.48;;;5.47;;
83552;SDS011;73510;50.866;5.420;2024-02-21T03:51:32;13.20;;;5.70;;
83552;SDS011;73510;50.866;5.420;2024-02-21T03:53:57;12.48;;;5.32;;
83552;SDS011;73510;50.866;5.420;2024-02-21T03:56:23;12.65;;;4.95;;
83552;SDS011;73510;50.866;5.420;2024-02-21T03:58:49;18.27;;;6.65;;
83552;SDS011;73510;50.866;5.420;2024-02-21T04:01:16;18.30;;;5.60;;
83552;SDS011;73510;50.866;5.420;2024-02-21T04:03:42;14.45;;;5.57;;
83552;SDS011;73510;50.866;5.420;2024-02-21T04:06:08;13.65;;;5.90;;
83552;SDS011;73510;50.866;5.420;2024-02-21T04:08:35;16.52;;;5.65;;
83552;SDS011;73510;50.866;5.420;2024-02-21T04:11:00;13.90;;;6.13;;
83552;SDS011;73510;50.866;5.420;2024-02-21T04:13:26;11.48;;;5.07;;
83552;SDS011;73510;50.866;5.420;2024-02-21T04:15:51;14.15;;;5.68;;
83552;SDS011;73510;50.866;5.420;2024-02-21T04:18:17;13.10;;;5.70;;
83552;SDS011;73510;50.866;5.420;2024-02-21T04:20:43;9.77;;;5.03;;
83552;SDS011;73510;50.866;5.420;2024-02-21T04:23:09;14.35;;;6.10;;
83552;SDS011;73510;50.866;5.420;2024-02-21T04:25:35;12.50;;;5.47;;
83552;SDS011;73510;50.866;5.420;2024-02-21T04:28:01;13.30;;;6.55;;
83552;SDS011;73510;50.866;5.420;2024-02-21T04:30:27;12.18;;;5.35;;
83552;SDS011;73510;50.866;5.420;2024-02-21T04:32:53;11.90;;;5.13;;
83552;SDS011;73510;50.866;5.420;2024-02-21T04:35:19;11.60;;;5.10;;
83552;SDS011;73510;50.866;5.420;2024-02-21T04:37:45;12.93;;;5.47;;
83552;SDS011;73510;50.866;5.420;2024-02-21T04:40:10;11.60;;;5.55;;
83552;SDS011;73510;50.866;5.420;2024-02-21T04:42:37;11.30;;;4.80;;
83552;SDS011;73510;50.866;5.420;2024-02-21T04:45:02;13.32;;;5.80;;
83552;SDS011;73510;50.866;5.420;2024-02-21T04:47:29;12.57;;;4.85;;
83552;SDS011;73510;50.866;5.420;2024-02-21T04:49:54;15.50;;;5.70;;
83552;SDS011;73510;50.866;5.420;2024-02-21T04:52:20;10.70;;;4.93;;
83552;SDS011;73510;50.866;5.420;2024-02-21T04:54:46;11.85;;;4.15;;
83552;SDS011;73510;50.866;5.420;2024-02-21T04:57:12;11.60;;;5.07;;
83552;SDS011;73510;50.866;5.420;2024-02-21T04:59:41;11.05;;;4.68;;
83552;SDS011;73510;50.866;5.420;2024-02-21T05:02:10;12.48;;;5.55;;
83552;SDS011;73510;50.866;5.420;2024-02-21T05:04:37;10.38;;;5.18;;
83552;SDS011;73510;50.866;5.420;2024-02-21T05:07:03;6.85;;;4.38;;
83552;SDS011;73510;50.866;5.420;2024-02-21T05:09:30;12.52;;;4.97;;
83552;SDS011;73510;50.866;5.420;2024-02-21T05:11:56;12.10;;;4.53;;
83552;SDS011;73510;50.866;5.420;2024-02-21T05:14:24;15.13;;;5.00;;
83552;SDS011;73510;50.866;5.420;2024-02-21T05:16:49;12.40;;;4.60;;
83552;SDS011;73510;50.866;5.420;2024-02-21T05:19:15;13.07;;;5.35;;
83552;SDS011;73510;50.866;5.420;2024-02-21T05:21:41;12.73;;;5.22;;
83552;SDS011;73510;50.866;5.420;2024-02-21T05:24:06;9.65;;;5.80;;
83552;SDS011;73510;50.866;5.420;2024-02-21T05:26:32;9.52;;;5.50;;
83552;SDS011;73510;50.866;5.420;2024-02-21T05:28:58;8.75;;;4.60;;
83552;SDS011;73510;50.866;5.420;2024-02-21T05:31:24;9.32;;;4.68;;
83552;SDS011;73510;50.866;5.420;2024-02-21T05:33:50;9.70;;;5.32;;
83552;SDS011;73510;50.866;5.420;2024-02-21T05:36:16;11.32;;;5.68;;
83552;SDS011;73510;50.866;5.420;2024-02-21T05:38:42;7.75;;;3.65;;
83552;SDS011;73510;50.866;5.420;2024-02-21T05:41:07;11.63;;;5.63;;
83552;SDS011;73510;50.866;5.420;2024-02-21T05:43:34;8.88;;;5.00;;
83552;SDS011;73510;50.866;5.420;2024-02-21T05:45:59;11.40;;;6.10;;
83552;SDS011;73510;50.866;5.420;2024-02-21T05:48:25;12.45;;;6.22;;
83552;SDS011;73510;50.866;5.420;2024-02-21T05:50:51;13.43;;;6.30;;
83552;SDS011;73510;50.866;5.420;2024-02-21T05:53:16;10.18;;;6.38;;
83552;SDS011;73510;50.866;5.420;2024-02-21T05:55:42;9.93;;;5.13;;
83552;SDS011;73510;50.866;5.420;2024-02-21T05:58:08;11.05;;;5.05;;
83552;SDS011;73510;50.866;5.420;2024-02-21T06:00:39;10.63;;;5.10;;
83552;SDS011;73510;50.866;5.420;2024-02-21T06:03:05;14.63;;;5.38;;
83552;SDS011;73510;50.866;5.420;2024-02-21T06:05:31;11.30;;;4.82;;
83552;SDS011;73510;50.866;5.420;2024-02-21T06:08:00;11.57;;;4.65;;
83552;SDS011;73510;50.866;5.420;2024-02-21T06:10:26;12.40;;;5.32;;
83552;SDS011;73510;50.866;5.420;2024-02-21T06:12:52;13.18;;;4.82;;
83552;SDS011;73510;50.866;5.420;2024-02-21T06:15:17;12.00;;;4.78;;
83552;SDS011;73510;50.866;5.420;2024-02-21T06:17:43;9.90;;;4.78;;
83552;SDS011;73510;50.866;5.420;2024-02-21T06:20:09;10.50;;;4.40;;
83552;SDS011;73510;50.866;5.420;2024-02-21T06:22:34;11.73;;;4.10;;
83552;SDS011;73510;50.866;5.420;2024-02-21T06:25:00;11.30;;;4.15;;
83552;SDS011;73510;50.866;5.420;2024-02-21T06:27:27;10.40;;;4.55;;
83552;SDS011;73510;50.866;5.420;2024-02-21T06:29:52;13.35;;;5.03;;
83552;SDS011;73510;50.866;5.420;2024-02-21T06:32:18;12.40;;;4.90;;
83552;SDS011;73510;50.866;5.420;2024-02-21T06:34:44;11.80;;;3.70;;
83552;SDS011;73510;50.866;5.420;2024-02-21T06:37:09;9.50;;;4.13;;
83552;SDS011;73510;50.866;5.420;2024-02-21T06:39:35;7.47;;;2.88;;
83552;SDS011;73510;50.866;5.420;2024-02-21T06:42:02;7.57;;;3.78;;
83552;SDS011;73510;50.866;5.420;2024-02-21T06:44:29;5.90;;;3.10;;
83552;SDS011;73510;50.866;5.420;2024-02-21T06:46:55;10.90;;;4.05;;
83552;SDS011;73510;50.866;5.420;2024-02-21T06:49:21;9.73;;;4.43;;
83552;SDS011;73510;50.866;5.420;2024-02-21T06:51:46;8.65;;;4.45;;
83552;SDS011;73510;50.866;5.420;2024-02-21T06:54:12;12.00;;;4.20;;
83552;SDS011;73510;50.866;5.420;2024-02-21T06:56:39;12.05;;;4.30;;
83552;SDS011;73510;50.866;5.420;2024-02-21T06:59:05;7.95;;;4.20;;
83552;SDS011;73510;50.866;5.420;2024-02-21T07:01:31;11.40;;;4.53;;
83552;SDS011;73510;50.866;5.420;2024-02-21T07:03:57;9.35;;;3.97;;
83552;SDS011;73510;50.866;5.420;2024-02-21T07:06:23;12.07;;;4.38;;
83552;SDS011;73510;50.866;5.420;2024-02-21T07:08:49;11.77;;;4.10;;
83552;SDS011;73510;50.866;5.420;2024-02-21T07:11:14;9.88;;;4.68;;
83552;SDS011;73510;50.866;5.420;2024-02-21T07:13:40;9.40;;;4.30;;
83552;SDS011;73510;50.866;5.420;2024-02-21T07:16:06;7.60;;;3.95;;
83552;SDS011;73510;50.866;5.420;2024-02-21T07:18:32;8.45;;;3.67;;
83552;SDS011;73510;50.866;5.420;2024-02-21T07:20:59;12.95;;;3.90;;
83552;SDS011;73510;50.866;5.420;2024-02-21T07:23:24;9.65;;;4.28;;
83552;SDS011;73510;50.866;5.420;2024-02-21T07:25:50;7.78;;;3.80;;
83552;SDS011;73510;50.866;5.420;2024-02-21T07:28:16;8.18;;;3.30;;
83552;SDS011;73510;50.866;5.420;2024-02-21T07:30:42;9.50;;;4.00;;
83552;SDS011;73510;50.866;5.420;2024-02-21T07:33:08;8.95;;;3.70;;
83552;SDS011;73510;50.866;5.420;2024-02-21T07:35:34;7.57;;;4.05;;
83552;SDS011;73510;50.866;5.420;2024-02-21T07:38:02;8.20;;;3.30;;
83552;SDS011;73510;50.866;5.420;2024-02-21T07:40:29;7.40;;;2.92;;
83552;SDS011;73510;50.866;5.420;2024-02-21T07:42:55;9.10;;;4.13;;
83552;SDS011;73510;50.866;5.420;2024-02-21T07:45:21;11.15;;;3.97;;
83552;SDS011;73510;50.866;5.420;2024-02-21T07:47:48;7.60;;;3.78;;
83552;SDS011;73510;50.866;5.420;2024-02-21T07:50:14;10.50;;;3.83;;
83552;SDS011;73510;50.866;5.420;2024-02-21T07:52:40;10.93;;;4.07;;
83552;SDS011;73510;50.866;5.420;2024-02-21T07:55:06;9.10;;;3.85;;
83552;SDS011;73510;50.866;5.420;2024-02-21T07:57:32;9.43;;;4.05;;
83552;SDS011;73510;50.866;5.420;2024-02-21T07:59:57;10.20;;;3.85;;
83552;SDS011;73510;50.866;5.420;2024-02-21T08:02:23;9.27;;;3.80;;
83552;SDS011;73510;50.866;5.420;2024-02-21T08:04:49;8.32;;;3.58;;
83552;SDS011;73510;50.866;5.420;2024-02-21T08:07:15;8.98;;;3.55;;
83552;SDS011;73510;50.866;5.420;2024-02-21T08:09:40;13.60;;;3.72;;
83552;SDS011;73510;50.866;5.420;2024-02-21T08:12:06;8.07;;;4.05;;
83552;SDS011;73510;50.866;5.420;2024-02-21T08:14:32;8.65;;;3.90;;
83552;SDS011;73510;50.866;5.420;2024-02-21T08:16:57;9.20;;;3.35;;
83552;SDS011;73510;50.866;5.420;2024-02-21T08:19:24;9.88;;;4.20;;
83552;SDS011;73510;50.866;5.420;2024-02-21T08:21:50;7.43;;;4.13;;
83552;SDS011;73510;50.866;5.420;2024-02-21T08:24:16;11.73;;;3.90;;
83552;SDS011;73510;50.866;5.420;2024-02-21T08:26:42;7.43;;;3.33;;
83552;SDS011;73510;50.866;5.420;2024-02-21T08:29:09;7.57;;;3.13;;
83552;SDS011;73510;50.866;5.420;2024-02-21T08:31:36;5.00;;;3.00;;
83552;SDS011;73510;50.866;5.420;2024-02-21T08:34:02;12.60;;;3.72;;
83552;SDS011;73510;50.866;5.420;2024-02-21T08:36:35;6.68;;;2.75;;
83552;SDS011;73510;50.866;5.420;2024-02-21T08:39:01;8.23;;;3.25;;
83552;SDS011;73510;50.866;5.420;2024-02-21T08:41:32;10.40;;;3.65;;
83552;SDS011;73510;50.866;5.420;2024-02-21T08:43:58;5.57;;;3.00;;
83552;SDS011;73510;50.866;5.420;2024-02-21T08:46:24;6.95;;;3.03;;
83552;SDS011;73510;50.866;5.420;2024-02-21T08:48:50;8.93;;;3.33;;
83552;SDS011;73510;50.866;5.420;2024-02-21T08:51:16;7.63;;;3.13;;
83552;SDS011;73510;50.866;5.420;2024-02-21T08:53:45;8.60;;;3.15;;
83552;SDS011;73510;50.866;5.420;2024-02-21T08:56:14;4.53;;;2.65;;
83552;SDS011;73510;50.866;5.420;2024-02-21T08:58:40;4.88;;;2.63;;
83552;SDS011;73510;50.866;5.420;2024-02-21T09:01:06;9.93;;;2.45;;
83552;SDS011;73510;50.866;5.420;2024-02-21T09:03:35;2.67;;;1.92;;
83552;SDS011;73510;50.866;5.420;2024-02-21T09:06:02;7.25;;;3.58;;
83552;SDS011;73510;50.866;5.420;2024-02-21T09:08:29;6.57;;;2.92;;
83552;SDS011;73510;50.866;5.420;2024-02-21T09:10:55;6.07;;;3.10;;
83552;SDS011;73510;50.866;5.420;2024-02-21T09:13:20;10.25;;;3.95;;
83552;SDS011;73510;50.866;5.420;2024-02-21T09:15:47;6.90;;;3.53;;
83552;SDS011;73510;50.866;5.420;2024-02-21T09:18:13;6.50;;;2.85;;
83552;SDS011;73510;50.866;5.420;2024-02-21T09:20:39;8.35;;;3.05;;
83552;SDS011;73510;50.866;5.420;2024-02-21T09:23:05;8.23;;;3.08;;
83552;SDS011;73510;50.866;5.420;2024-02-21T09:25:30;8.77;;;3.67;;
83552;SDS011;73510;50.866;5.420;2024-02-21T09:27:56;9.02;;;3.20;;
83552;SDS011;73510;50.866;5.420;2024-02-21T09:30:23;7.18;;;3.15;;
83552;SDS011;73510;50.866;5.420;2024-02-21T09:32:49;8.50;;;3.63;;
83552;SDS011;73510;50.866;5.420;2024-02-21T09:35:15;6.57;;;3.20;;
83552;SDS011;73510;50.866;5.420;2024-02-21T09:37:40;10.68;;;3.63;;
83552;SDS011;73510;50.866;5.420;2024-02-21T09:40:06;7.78;;;3.25;;
83552;SDS011;73510;50.866;5.420;2024-02-21T09:42:39;6.07;;;3.20;;
83552;SDS011;73510;50.866;5.420;2024-02-21T09:45:25;9.88;;;3.53;;
83552;SDS011;73510;50.866;5.420;2024-02-21T09:50:50;7.93;;;3.70;;
83552;SDS011;73510;50.866;5.420;2024-02-21T09:53:18;9.52;;;3.15;;
83552;SDS011;73510;50.866;5.420;2024-02-21T09:55:44;5.97;;;2.88;;
83552;SDS011;73510;50.866;5.420;2024-02-21T09:58:11;8.93;;;3.88;;
83552;SDS011;73510;50.866;5.420;2024-02-21T10:00:38;6.20;;;3.22;;
83552;SDS011;73510;50.866;5.420;2024-02-21T10:03:04;9.52;;;3.92;;
83552;SDS011;73510;50.866;5.420;2024-02-21T10:05:33;9.55;;;3.75;;
83552;SDS011;73510;50.866;5.420;2024-02-21T10:08:00;7.38;;;3.67;;
83552;SDS011;73510;50.866;5.420;2024-02-21T10:10:26;5.07;;;3.13;;
83552;SDS011;73510;50.866;5.420;2024-02-21T10:12:52;9.00;;;3.97;;
83552;SDS011;73510;50.866;5.420;2024-02-21T10:15:23;5.97;;;2.65;;
83552;SDS011;73510;50.866;5.420;2024-02-21T10:17:50;7.22;;;3.50;;
83552;SDS011;73510;50.866;5.420;2024-02-21T10:20:23;7.45;;;3.92;;
83552;SDS011;73510;50.866;5.420;2024-02-21T10:22:59;10.02;;;3.53;;
83552;SDS011;73510;50.866;5.420;2024-02-21T10:25:35;11.73;;;3.78;;
83552;SDS011;73510;50.866;5.420;2024-02-21T10:28:03;10.20;;;3.40;;
83552;SDS011;73510;50.866;5.420;2024-02-21T10:30:29;5.63;;;3.28;;
83552;SDS011;73510;50.866;5.420;2024-02-21T10:32:55;7.05;;;3.47;;
83552;SDS011;73510;50.866;5.420;2024-02-21T10:35:29;7.35;;;3.30;;
83552;SDS011;73510;50.866;5.420;2024-02-21T10:37:56;4.68;;;2.95;;
83552;SDS011;73510;50.866;5.420;2024-02-21T10:40:23;9.05;;;3.38;;
83552;SDS011;73510;50.866;5.420;2024-02-21T10:42:51;6.97;;;2.95;;
83552;SDS011;73510;50.866;5.420;2024-02-21T10:45:31;8.52;;;3.58;;
83552;SDS011;73510;50.866;5.420;2024-02-21T10:48:11;8.13;;;4.38;;
83552;SDS011;73510;50.866;5.420;2024-02-21T10:50:45;7.07;;;3.20;;
83552;SDS011;73510;50.866;5.420;2024-02-21T10:53:36;7.60;;;3.10;;
83552;SDS011;73510;50.866;5.420;2024-02-21T10:58:41;7.63;;;3.22;;
83552;SDS011;73510;50.866;5.420;2024-02-21T11:01:07;8.40;;;2.72;;
83552;SDS011;73510;50.866;5.420;2024-02-21T11:03:34;5.22;;;2.90;;
83552;SDS011;73510;50.866;5.420;2024-02-21T11:06:02;5.13;;;2.63;;
83552;SDS011;73510;50.866;5.420;2024-02-21T11:08:30;10.00;;;2.78;;
83552;SDS011;73510;50.866;5.420;2024-02-21T11:10:59;5.60;;;2.65;;
83552;SDS011;73510;50.866;5.420;2024-02-21T11:13:31;5.43;;;2.97;;
83552;SDS011;73510;50.866;5.420;2024-02-21T11:16:09;5.97;;;2.92;;
83552;SDS011;73510;50.866;5.420;2024-02-21T11:18:37;3.10;;;1.13;;
83552;SDS011;73510;50.866;5.420;2024-02-21T11:21:04;6.15;;;2.67;;
83552;SDS011;73510;50.866;5.420;2024-02-21T11:23:30;8.05;;;3.00;;
83552;SDS011;73510;50.866;5.420;2024-02-21T11:28:35;6.18;;;3.00;;
83552;SDS011;73510;50.866;5.420;2024-02-21T11:31:07;7.85;;;3.97;;
83552;SDS011;73510;50.866;5.420;2024-02-21T11:33:34;6.88;;;3.33;;
83552;SDS011;73510;50.866;5.420;2024-02-21T11:36:00;9.63;;;3.95;;
83552;SDS011;73510;50.866;5.420;2024-02-21T11:38:25;11.10;;;3.63;;
83552;SDS011;73510;50.866;5.420;2024-02-21T11:40:51;9.93;;;3.10;;
83552;SDS011;73510;50.866;5.420;2024-02-21T11:43:17;7.60;;;3.53;;
83552;SDS011;73510;50.866;5.420;2024-02-21T11:45:43;7.13;;;2.92;;
83552;SDS011;73510;50.866;5.420;2024-02-21T11:48:08;5.97;;;2.83;;
83552;SDS011;73510;50.866;5.420;2024-02-21T11:50:34;8.70;;;3.80;;
83552;SDS011;73510;50.866;5.420;2024-02-21T11:53:04;6.38;;;2.83;;
83552;SDS011;73510;50.866;5.420;2024-02-21T11:55:30;12.70;;;3.10;;
83552;SDS011;73510;50.866;5.420;2024-02-21T11:57:56;3.75;;;1.98;;
83552;SDS011;73510;50.866;5.420;2024-02-21T12:00:22;7.90;;;3.60;;
83552;SDS011;73510;50.866;5.420;2024-02-21T12:02:51;5.55;;;2.63;;
83552;SDS011;73510;50.866;5.420;2024-02-21T12:05:20;5.22;;;3.20;;
83552;SDS011;73510;50.866;5.420;2024-02-21T12:07:46;4.85;;;3.05;;
83552;SDS011;73510;50.866;5.420;2024-02-21T12:10:13;5.93;;;2.40;;
83552;SDS011;73510;50.866;5.420;2024-02-21T12:12:39;7.57;;;2.88;;
83552;SDS011;73510;50.866;5.420;2024-02-21T12:15:05;4.88;;;2.65;;
83552;SDS011;73510;50.866;5.420;2024-02-21T12:17:32;5.95;;;2.70;;
83552;SDS011;73510;50.866;5.420;2024-02-21T12:19:59;5.53;;;2.97;;
83552;SDS011;73510;50.866;5.420;2024-02-21T12:22:25;7.57;;;2.97;;
83552;SDS011;73510;50.866;5.420;2024-02-21T12:24:52;5.10;;;2.60;;
83552;SDS011;73510;50.866;5.420;2024-02-21T12:27:18;8.50;;;2.60;;
83552;SDS011;73510;50.866;5.420;2024-02-21T12:29:43;7.75;;;2.90;;
83552;SDS011;73510;50.866;5.420;2024-02-21T12:32:09;4.40;;;2.60;;
83552;SDS011;73510;50.866;5.420;2024-02-21T12:34:34;7.28;;;3.22;;
83552;SDS011;73510;50.866;5.420;2024-02-21T12:37:01;7.82;;;2.67;;
83552;SDS011;73510;50.866;5.420;2024-02-21T12:39:28;8.63;;;2.83;;
83552;SDS011;73510;50.866;5.420;2024-02-21T12:41:54;4.75;;;2.50;;
83552;SDS011;73510;50.866;5.420;2024-02-21T12:44:23;4.38;;;1.95;;
83552;SDS011;73510;50.866;5.420;2024-02-21T12:46:49;3.90;;;2.40;;
83552;SDS011;73510;50.866;5.420;2024-02-21T12:49:17;4.22;;;2.45;;
83552;SDS011;73510;50.866;5.420;2024-02-21T12:51:43;5.38;;;2.90;;
83552;SDS011;73510;50.866;5.420;2024-02-21T12:54:11;6.50;;;2.72;;
83552;SDS011;73510;50.866;5.420;2024-02-21T12:56:37;5.57;;;2.92;;
83552;SDS011;73510;50.866;5.420;2024-02-21T12:59:04;4.45;;;1.95;;
83552;SDS011;73510;50.866;5.420;2024-02-21T13:01:30;6.82;;;1.80;;
83552;SDS011;73510;50.866;5.420;2024-02-21T13:03:57;6.93;;;2.55;;
83552;SDS011;73510;50.866;5.420;2024-02-21T13:06:25;5.57;;;2.28;;
83552;SDS011;73510;50.866;5.420;2024-02-21T13:08:51;6.47;;;2.10;;
83552;SDS011;73510;50.866;5.420;2024-02-21T13:11:17;4.32;;;2.03;;
83552;SDS011;73510;50.866;5.420;2024-02-21T13:13:42;4.32;;;2.08;;
83552;SDS011;73510;50.866;5.420;2024-02-21T13:16:08;5.60;;;2.25;;
83552;SDS011;73510;50.866;5.420;2024-02-21T13:18:35;5.35;;;1.90;;
83552;SDS011;73510;50.866;5.420;2024-02-21T13:21:03;4.60;;;1.73;;
83552;SDS011;73510;50.866;5.420;2024-02-21T13:23:29;3.83;;;2.60;;
83552;SDS011;73510;50.866;5.420;2024-02-21T13:25:55;4.53;;;1.88;;
83552;SDS011;73510;50.866;5.420;2024-02-21T13:28:21;3.75;;;1.85;;
83552;SDS011;73510;50.866;5.420;2024-02-21T13:30:46;4.55;;;1.50;;
83552;SDS011;73510;50.866;5.420;2024-02-21T13:33:12;4.07;;;1.40;;
83552;SDS011;73510;50.866;5.420;2024-02-21T13:35:38;4.70;;;1.45;;
83552;SDS011;73510;50.866;5.420;2024-02-21T13:38:04;3.00;;;1.20;;
83552;SDS011;73510;50.866;5.420;2024-02-21T13:40:30;4.30;;;1.33;;
83552;SDS011;73510;50.866;5.420;2024-02-21T13:42:56;2.97;;;1.60;;
83552;SDS011;73510;50.866;5.420;2024-02-21T13:45:22;4.55;;;1.73;;
83552;SDS011;73510;50.866;5.420;2024-02-21T13:47:47;4.78;;;2.08;;
83552;SDS011;73510;50.866;5.420;2024-02-21T13:50:13;3.78;;;1.55;;
83552;SDS011;73510;50.866;5.420;2024-02-21T13:52:42;2.67;;;1.33;;
83552;SDS011;73510;50.866;5.420;2024-02-21T13:55:08;3.58;;;1.88;;
83552;SDS011;73510;50.866;5.420;2024-02-21T13:57:36;3.95;;;1.23;;
83552;SDS011;73510;50.866;5.420;2024-02-21T14:00:03;2.95;;;1.23;;
83552;SDS011;73510;50.866;5.420;2024-02-21T14:02:30;2.17;;;1.20;;
83552;SDS011;73510;50.866;5.420;2024-02-21T14:04:56;4.22;;;1.52;;
83552;SDS011;73510;50.866;5.420;2024-02-21T14:07:21;3.15;;;1.60;;
83552;SDS011;73510;50.866;5.420;2024-02-21T14:09:47;2.78;;;1.63;;
83552;SDS011;73510;50.866;5.420;2024-02-21T14:12:13;5.03;;;1.90;;
83552;SDS011;73510;50.866;5.420;2024-02-21T14:14:41;6.43;;;1.83;;
83552;SDS011;73510;50.866;5.420;2024-02-21T14:17:08;4.15;;;2.03;;
83552;SDS011;73510;50.866;5.420;2024-02-21T14:19:34;4.07;;;2.03;;
83552;SDS011;73510;50.866;5.420;2024-02-21T14:21:59;5.22;;;2.10;;
83552;SDS011;73510;50.866;5.420;2024-02-21T14:24:27;5.57;;;2.10;;
83552;SDS011;73510;50.866;5.420;2024-02-21T14:26:53;2.80;;;1.45;;
83552;SDS011;73510;50.866;5.420;2024-02-21T14:29:20;4.82;;;1.67;;
83552;SDS011;73510;50.866;5.420;2024-02-21T14:31:46;5.20;;;2.05;;
83552;SDS011;73510;50.866;5.420;2024-02-21T14:34:11;5.65;;;1.60;;
83552;SDS011;73510;50.866;5.420;2024-02-21T14:36:37;4.05;;;1.67;;
83552;SDS011;73510;50.866;5.420;2024-02-21T14:39:03;4.88;;;1.90;;
83552;SDS011;73510;50.866;5.420;2024-02-21T14:41:30;6.25;;;2.00;;
83552;SDS011;73510;50.866;5.420;2024-02-21T14:43:56;3.30;;;1.95;;
83552;SDS011;73510;50.866;5.420;2024-02-21T14:46:25;5.95;;;2.40;;
83552;SDS011;73510;50.866;5.420;2024-02-21T14:48:53;6.90;;;2.15;;